Time;durP1;ratioP1;P1;durP2;ratioP2;P2;SDS_P1;SDS_P2;PMS_P1;PMS_P2;Temp;Humidity;BMP_temperature;BMP_pressure;BME280_temperature;BME280_humidity;BME280_pressure;Samples;Min_cycle;Max_cycle;Signal;HPM_P1;HPM_P2
2022/04/23 00:02:03;;;;;;;19.48;8.93;;;11.70;99.90;;;;;;5035504;28;20045;-75
2022/04/23 00:04:30;;;;;;;16.40;8.80;;;11.70;99.90;;;;;;5018130;28;20053;-76
2022/04/23 00:06:57;;;;;;;12.85;8.25;;;11.70;99.90;;;;;;5035654;28;20050;-75
2022/04/23 00:09:22;;;;;;;14.30;8.02;;;11.60;99.90;;;;;;5001680;28;20103;-75
2022/04/23 00:11:48;;;;;;;13.02;7.88;;;11.60;99.90;;;;;;5035342;28;20136;-76
2022/04/23 00:14:14;;;;;;;14.32;8.25;;;11.50;99.90;;;;;;5035149;28;20187;-74
2022/04/23 00:16:39;;;;;;;14.70;8.88;;;11.50;99.90;;;;;;5031038;28;20159;-75
2022/04/23 00:19:05;;;;;;;14.18;8.38;;;11.40;99.90;;;;;;5055000;28;20051;-76
2022/04/23 00:21:31;;;;;;;18.23;8.00;;;11.40;99.90;;;;;;5038184;28;20053;-77
2022/04/23 00:23:56;;;;;;;12.20;8.30;;;11.30;99.90;;;;;;5055341;28;20084;-76
2022/04/23 00:26:22;;;;;;;13.48;8.35;;;11.20;99.90;;;;;;5054886;28;20033;-74
2022/04/23 00:28:47;;;;;;;13.80;8.10;;;11.20;99.90;;;;;;5037598;28;20055;-75
2022/04/23 00:31:14;;;;;;;12.70;8.40;;;11.10;99.90;;;;;;5037299;28;20053;-73
2022/04/23 00:33:40;;;;;;;15.52;8.20;;;11.10;99.90;;;;;;5054751;28;20156;-75
2022/04/23 00:36:10;;;;;;;12.52;7.93;;;11.00;99.90;;;;;;5054994;28;20072;-74
2022/04/23 00:38:42;;;;;;;12.52;8.20;;;11.00;99.90;;;;;;5037130;28;20056;-75
2022/04/23 00:41:43;;;;;;;15.07;8.85;;;10.90;99.90;;;;;;5020787;28;20483;-74
2022/04/23 00:43:54;;;;;;;12.20;8.70;;;10.90;99.90;;;;;;5054856;28;20048;-74
2022/04/23 00:46:20;;;;;;;14.07;8.95;;;10.90;99.90;;;;;;5054254;28;20576;-76
2022/04/23 00:48:45;;;;;;;11.60;8.82;;;10.90;99.90;;;;;;5037408;28;20053;-76
2022/04/23 00:51:12;;;;;;;15.10;9.40;;;10.90;99.90;;;;;;5020833;28;20060;-77
2022/04/23 00:53:38;;;;;;;16.90;9.13;;;10.90;99.90;;;;;;5020374;28;20045;-75
2022/04/23 00:56:05;;;;;;;11.30;8.88;;;10.80;99.90;;;;;;5055175;28;20361;-74
2022/04/23 00:58:31;;;;;;;16.65;9.52;;;10.80;99.90;;;;;;5037393;28;20064;-76
2022/04/23 01:00:56;;;;;;;13.60;9.88;;;10.70;99.90;;;;;;5054697;28;20037;-75
2022/04/23 01:03:22;;;;;;;15.35;9.38;;;10.70;99.90;;;;;;5054582;28;20172;-75
2022/04/23 01:05:48;;;;;;;15.50;9.38;;;10.60;99.90;;;;;;5037146;28;20362;-75
2022/04/23 01:08:17;;;;;;;12.40;9.35;;;10.50;99.90;;;;;;5020826;28;20052;-74
2022/04/23 01:10:48;;;;;;;15.20;10.45;;;10.40;99.90;;;;;;5055084;28;20056;-75
2022/04/23 01:13:14;;;;;;;15.55;9.80;;;10.40;99.90;;;;;;5054878;28;20053;-76
2022/04/23 01:15:43;;;;;;;13.23;9.35;;;10.40;99.90;;;;;;5035935;28;20036;-75
2022/04/23 01:18:09;;;;;;;14.00;10.00;;;10.40;99.90;;;;;;5054799;28;20444;-77
2022/04/23 01:20:36;;;;;;;16.70;10.60;;;10.40;99.90;;;;;;5054711;28;20471;-76
2022/04/23 01:23:01;;;;;;;16.65;10.25;;;10.40;99.90;;;;;;5036961;28;20492;-76
2022/04/23 01:25:27;;;;;;;12.80;9.98;;;10.40;99.90;;;;;;5020821;28;20037;-73
2022/04/23 01:27:54;;;;;;;17.02;10.95;;;10.40;99.90;;;;;;5021042;28;20064;-75
2022/04/23 01:30:19;;;;;;;17.48;10.80;;;10.40;99.90;;;;;;5054475;28;20041;-74
2022/04/23 01:32:45;;;;;;;14.57;9.82;;;10.40;99.90;;;;;;5020775;28;20057;-74
2022/04/23 01:35:11;;;;;;;16.80;10.48;;;10.40;99.90;;;;;;5054903;28;20048;-75
2022/04/23 01:37:36;;;;;;;16.67;10.57;;;10.40;99.90;;;;;;5036781;28;20056;-76
2022/04/23 01:40:02;;;;;;;17.95;11.10;;;10.30;99.90;;;;;;5036704;28;20093;-74
2022/04/23 01:42:28;;;;;;;16.08;10.60;;;10.30;99.90;;;;;;5037090;28;20088;-75
2022/04/23 01:44:53;;;;;;;16.23;11.20;;;10.30;99.90;;;;;;5052538;28;20041;-75
2022/04/23 01:47:19;;;;;;;18.83;11.75;;;10.30;99.90;;;;;;5038459;28;20493;-77
2022/04/23 01:49:45;;;;;;;18.55;12.30;;;10.30;99.90;;;;;;5004421;28;20370;-75
2022/04/23 01:52:14;;;;;;;20.08;11.48;;;10.30;99.90;;;;;;5020409;28;20049;-74
2022/04/23 01:54:40;;;;;;;16.00;10.25;;;10.30;99.90;;;;;;5020571;28;20411;-76
2022/04/23 01:57:06;;;;;;;17.98;12.02;;;10.20;99.90;;;;;;5038912;28;20037;-75
2022/04/23 01:59:32;;;;;;;15.45;11.52;;;10.30;99.90;;;;;;5037955;28;20446;-73
2022/04/23 02:01:58;;;;;;;16.15;11.82;;;10.20;99.90;;;;;;5020678;28;20053;-75
2022/04/23 02:04:25;;;;;;;15.55;11.75;;;10.10;99.90;;;;;;5004087;28;20064;-75
2022/04/23 02:06:50;;;;;;;18.52;11.95;;;10.20;99.90;;;;;;5020875;28;20359;-76
2022/04/23 02:09:17;;;;;;;17.50;11.30;;;10.10;99.90;;;;;;5020707;28;20049;-74
2022/04/23 02:11:43;;;;;;;17.95;11.07;;;10.10;99.90;;;;;;5020550;28;20065;-77
2022/04/23 02:14:09;;;;;;;16.85;11.85;;;10.10;99.90;;;;;;5037823;28;20061;-74
2022/04/23 02:16:35;;;;;;;20.40;12.35;;;10.00;99.90;;;;;;5036164;28;20060;-74
2022/04/23 02:19:03;;;;;;;18.70;11.88;;;10.00;99.90;;;;;;5039576;28;20045;-75
2022/04/23 02:21:29;;;;;;;16.73;11.95;;;10.00;99.90;;;;;;5039975;28;20441;-76
2022/04/23 02:23:54;;;;;;;18.35;12.40;;;10.00;99.90;;;;;;5057642;28;20045;-75
2022/04/23 02:26:21;;;;;;;17.00;11.70;;;10.00;99.90;;;;;;5057512;28;20377;-74
2022/04/23 02:28:47;;;;;;;17.83;12.05;;;10.00;99.90;;;;;;5057059;28;20111;-76
2022/04/23 02:31:13;;;;;;;18.13;12.95;;;9.90;99.90;;;;;;5039552;28;20057;-76
2022/04/23 02:33:39;;;;;;;18.10;12.73;;;9.80;99.90;;;;;;5039470;28;20047;-77
2022/04/23 02:36:06;;;;;;;16.65;12.30;;;9.80;99.90;;;;;;5057183;28;20041;-76
2022/04/23 02:38:32;;;;;;;18.85;12.25;;;9.80;99.90;;;;;;5057024;28;20049;-75
2022/04/23 02:40:58;;;;;;;26.95;12.98;;;9.80;99.90;;;;;;5057080;28;20067;-76
2022/04/23 02:43:24;;;;;;;18.95;12.25;;;9.80;99.90;;;;;;5057043;28;20045;-75
2022/04/23 02:45:49;;;;;;;20.05;12.65;;;9.80;99.90;;;;;;5044261;28;20045;-75
2022/04/23 02:48:15;;;;;;;16.38;11.40;;;9.80;99.90;;;;;;5019180;28;20041;-75
2022/04/23 02:50:41;;;;;;;16.90;12.57;;;9.90;99.90;;;;;;5019826;28;20053;-76
2022/04/23 02:53:08;;;;;;;16.45;10.95;;;9.70;99.90;;;;;;5040001;28;20047;-74
2022/04/23 02:55:35;;;;;;;19.02;11.98;;;9.70;99.90;;;;;;5022946;28;20098;-74
2022/04/23 02:58:10;;;;;;;22.52;12.23;;;9.70;99.90;;;;;;5038906;28;20049;-75
2022/04/23 03:00:40;;;;;;;17.92;12.52;;;9.60;99.90;;;;;;5056477;28;20456;-74
2022/04/23 03:03:09;;;;;;;18.90;11.90;;;9.50;99.90;;;;;;5038733;28;20052;-75
2022/04/23 03:05:35;;;;;;;19.70;13.02;;;9.50;99.90;;;;;;5056267;28;20041;-74
2022/04/23 03:08:02;;;;;;;20.25;12.88;;;9.50;99.90;;;;;;5022401;28;20136;-75
2022/04/23 03:10:29;;;;;;;20.40;12.48;;;9.50;99.90;;;;;;5056553;28;20033;-75
2022/04/23 03:12:58;;;;;;;18.50;13.15;;;9.40;99.90;;;;;;5035761;28;20052;-74
2022/04/23 03:15:27;;;;;;;20.83;13.00;;;9.40;99.90;;;;;;5029580;28;20068;-76
2022/04/23 03:18:10;;;;;;;21.88;13.15;;;9.50;99.90;;;;;;5019076;28;20076;-75
2022/04/23 03:20:37;;;;;;;18.65;12.95;;;9.50;99.90;;;;;;5036430;28;20056;-75
2022/04/23 03:23:02;;;;;;;19.38;12.98;;;9.40;99.90;;;;;;5036414;28;20045;-77
2022/04/23 03:25:28;;;;;;;17.95;12.30;;;9.40;99.90;;;;;;5002638;28;20253;-76
2022/04/23 03:27:53;;;;;;;22.38;12.65;;;9.40;99.90;;;;;;5036274;28;20152;-75
2022/04/23 03:30:20;;;;;;;19.05;12.13;;;9.30;99.90;;;;;;5018839;28;20132;-76
2022/04/23 03:32:47;;;;;;;18.58;11.88;;;9.30;99.90;;;;;;5018510;28;20049;-75
2022/04/23 03:35:13;;;;;;;19.50;12.93;;;9.30;99.90;;;;;;5036211;28;20045;-76
2022/04/23 03:37:42;;;;;;;19.30;12.38;;;9.30;99.90;;;;;;5036026;28;20461;-75
2022/04/23 03:40:09;;;;;;;16.88;12.55;;;9.30;99.90;;;;;;5036183;28;20041;-75
2022/04/23 03:42:36;;;;;;;17.63;12.15;;;9.20;99.90;;;;;;5033125;28;20037;-77
2022/04/23 03:45:04;;;;;;;18.73;12.88;;;9.20;99.90;;;;;;5026521;28;20056;-74
2022/04/23 03:47:31;;;;;;;19.58;12.65;;;9.20;99.90;;;;;;5021793;28;20045;-75
2022/04/23 03:49:57;;;;;;;19.25;12.43;;;9.10;99.90;;;;;;5024531;28;20029;-77
2022/04/23 03:52:22;;;;;;;17.02;12.07;;;9.10;99.90;;;;;;5035245;28;20049;-75
2022/04/23 03:54:48;;;;;;;16.30;12.55;;;9.10;99.90;;;;;;5018446;28;20144;-75
2022/04/23 03:57:14;;;;;;;15.88;12.10;;;9.00;99.90;;;;;;5017931;28;20422;-76
2022/04/23 03:59:39;;;;;;;18.38;12.82;;;9.10;99.90;;;;;;5035579;28;20099;-75
2022/04/23 04:02:05;;;;;;;18.45;11.90;;;9.10;99.90;;;;;;5018914;28;20111;-76
2022/04/23 04:04:32;;;;;;;19.30;12.90;;;9.00;99.90;;;;;;5017983;28;20458;-74
2022/04/23 04:06:59;;;;;;;17.35;12.57;;;9.00;99.90;;;;;;5035322;28;20073;-75
2022/04/23 04:09:26;;;;;;;15.20;11.70;;;9.00;99.90;;;;;;5035419;28;20037;-76
2022/04/23 04:12:01;;;;;;;15.32;12.68;;;9.00;99.90;;;;;;5035216;28;20050;-76
2022/04/23 04:14:28;;;;;;;16.10;12.30;;;9.00;99.90;;;;;;5017718;28;20138;-75
2022/04/23 04:16:54;;;;;;;16.52;12.85;;;9.00;99.90;;;;;;5017758;28;20045;-76
2022/04/23 04:19:20;;;;;;;16.85;13.52;;;8.90;99.90;;;;;;5017864;28;20038;-76
2022/04/23 04:21:46;;;;;;;15.00;12.88;;;8.90;99.90;;;;;;5017676;28;20053;-74
2022/04/23 04:24:15;;;;;;;17.85;12.80;;;9.00;99.90;;;;;;5044507;28;20041;-74
2022/04/23 04:26:42;;;;;;;16.05;12.35;;;8.90;99.90;;;;;;5024404;28;20065;-74
2022/04/23 04:29:08;;;;;;;14.68;12.30;;;9.00;99.90;;;;;;5035970;28;20041;-74
2022/04/23 04:31:47;;;;;;;17.20;12.82;;;9.00;99.90;;;;;;5035182;28;20099;-73
2022/04/23 04:34:13;;;;;;;16.17;12.82;;;9.00;99.90;;;;;;5039033;28;20110;-73
2022/04/23 04:36:39;;;;;;;14.63;12.02;;;8.90;99.90;;;;;;5024789;28;20101;-73
2022/04/23 04:39:05;;;;;;;16.17;12.32;;;9.00;99.90;;;;;;5040929;28;20064;-75
2022/04/23 04:41:31;;;;;;;17.33;13.02;;;9.00;99.90;;;;;;5017297;28;20040;-74
2022/04/23 04:43:57;;;;;;;15.65;12.57;;;8.90;99.90;;;;;;5035089;28;20430;-73
2022/04/23 04:46:23;;;;;;;14.60;12.65;;;8.90;99.90;;;;;;5020032;28;20056;-74
2022/04/23 04:48:49;;;;;;;17.75;12.57;;;8.90;99.90;;;;;;5037780;28;20063;-75
2022/04/23 04:51:15;;;;;;;18.33;11.82;;;9.00;99.90;;;;;;5054963;28;20045;-73
2022/04/23 04:53:40;;;;;;;14.35;12.20;;;9.00;99.90;;;;;;5054680;28;20102;-73
2022/04/23 04:56:07;;;;;;;16.42;12.35;;;9.00;99.90;;;;;;5054958;28;20045;-74
2022/04/23 04:58:33;;;;;;;15.60;12.40;;;9.00;99.90;;;;;;5035393;28;20060;-72
2022/04/23 05:00:58;;;;;;;17.20;13.25;;;9.00;99.90;;;;;;5017405;28;20045;-70
2022/04/23 05:03:25;;;;;;;15.85;12.18;;;9.00;99.90;;;;;;5048362;28;20044;-74
2022/04/23 05:05:51;;;;;;;15.00;12.15;;;9.00;99.90;;;;;;5045607;28;20503;-75
2022/04/23 05:08:17;;;;;;;14.60;12.27;;;9.00;99.90;;;;;;5052952;28;20049;-75
2022/04/23 05:10:42;;;;;;;15.32;12.75;;;9.00;99.90;;;;;;5037175;28;20128;-73
2022/04/23 05:13:08;;;;;;;18.40;13.10;;;9.10;99.90;;;;;;5037506;28;20386;-75
2022/04/23 05:15:34;;;;;;;18.83;13.75;;;9.10;99.90;;;;;;5045152;28;20472;-73
2022/04/23 05:17:59;;;;;;;13.93;12.02;;;9.10;99.90;;;;;;5034123;28;20057;-74
2022/04/23 05:20:25;;;;;;;13.82;11.38;;;9.10;99.90;;;;;;5038500;28;20045;-75
2022/04/23 05:22:50;;;;;;;15.27;12.30;;;9.20;99.90;;;;;;5058622;28;20508;-76
2022/04/23 05:25:16;;;;;;;18.42;12.65;;;9.20;99.90;;;;;;5035974;28;20045;-75
2022/04/23 05:27:41;;;;;;;16.50;12.43;;;9.20;99.90;;;;;;5042400;28;20034;-76
2022/04/23 05:30:08;;;;;;;16.73;12.13;;;9.30;99.90;;;;;;5023113;28;20076;-74
2022/04/23 05:32:33;;;;;;;16.40;12.48;;;9.30;99.90;;;;;;5025809;28;20120;-73
2022/04/23 05:34:59;;;;;;;15.57;11.50;;;9.40;99.90;;;;;;5046330;28;20133;-73
2022/04/23 05:37:24;;;;;;;15.98;11.70;;;9.50;99.90;;;;;;5037055;28;20049;-73
2022/04/23 05:39:50;;;;;;;15.52;11.80;;;9.70;99.90;;;;;;5040473;28;20041;-74
2022/04/23 05:42:15;;;;;;;13.52;11.25;;;10.10;99.90;;;;;;5055917;28;20045;-72
2022/04/23 05:44:41;;;;;;;14.30;11.63;;;10.40;99.90;;;;;;5046640;28;20036;-73
2022/04/23 05:47:06;;;;;;;13.57;10.85;;;10.80;99.90;;;;;;5058135;28;20053;-74
2022/04/23 05:49:32;;;;;;;13.13;11.35;;;11.50;99.90;;;;;;5037343;28;20045;-75
2022/04/23 05:51:58;;;;;;;13.30;10.85;;;12.10;99.90;;;;;;5053648;28;20041;-74
2022/04/23 05:54:23;;;;;;;12.88;10.75;;;12.90;99.90;;;;;;5037097;28;20376;-74
2022/04/23 05:56:49;;;;;;;15.32;10.45;;;13.40;99.90;;;;;;4993435;28;20053;-73
2022/04/23 05:59:15;;;;;;;13.43;9.40;;;13.60;99.90;;;;;;5037257;28;20050;-74
2022/04/23 06:01:40;;;;;;;13.27;10.18;;;14.00;99.90;;;;;;5049362;28;20123;-73
2022/04/23 06:04:06;;;;;;;12.20;9.55;;;14.10;99.90;;;;;;5056874;28;20381;-75
2022/04/23 06:06:31;;;;;;;14.13;9.95;;;14.50;99.90;;;;;;5049779;28;20453;-73
2022/04/23 06:08:57;;;;;;;13.00;9.18;;;14.30;99.90;;;;;;5020200;28;20513;-76
2022/04/23 06:11:22;;;;;;;12.07;9.68;;;14.80;99.90;;;;;;5037411;28;20057;-74
2022/04/23 06:13:48;;;;;;;12.48;9.10;;;14.70;99.90;;;;;;5037526;28;20050;-73
2022/04/23 06:16:13;;;;;;;13.63;9.77;;;14.90;99.90;;;;;;5053876;28;20037;-74
2022/04/23 06:18:39;;;;;;;11.38;9.43;;;15.20;99.90;;;;;;5023110;28;20430;-76
2022/04/23 06:21:04;;;;;;;11.75;10.00;;;15.20;99.90;;;;;;5052197;28;20041;-73
2022/04/23 06:23:30;;;;;;;14.73;9.18;;;15.40;99.90;;;;;;5057651;28;20052;-76
2022/04/23 06:25:55;;;;;;;15.45;9.55;;;16.00;99.90;;;;;;5034146;28;20380;-74
2022/04/23 06:28:21;;;;;;;10.50;9.10;;;15.80;99.90;;;;;;5045913;28;20115;-75
2022/04/23 06:30:46;;;;;;;12.90;9.85;;;16.00;99.90;;;;;;5036888;28;20037;-75
2022/04/23 06:33:12;;;;;;;14.13;10.05;;;15.40;99.90;;;;;;5042493;28;20092;-73
2022/04/23 06:35:37;;;;;;;12.95;9.20;;;15.40;99.90;;;;;;5029729;28;20052;-74
2022/04/23 06:38:03;;;;;;;12.52;9.13;;;15.50;99.90;;;;;;5029551;28;20114;-74
2022/04/23 06:40:29;;;;;;;10.75;9.48;;;15.90;99.90;;;;;;5039300;28;20041;-74
2022/04/23 06:42:54;;;;;;;11.40;9.38;;;16.10;99.90;;;;;;5036867;28;20037;-75
2022/04/23 06:45:20;;;;;;;12.88;8.50;;;16.40;99.90;;;;;;5034173;28;20400;-73
2022/04/23 06:47:46;;;;;;;14.10;8.95;;;16.40;99.90;;;;;;5026019;28;20515;-77
2022/04/23 06:50:11;;;;;;;13.40;9.48;;;16.50;99.90;;;;;;5019565;28;20049;-74
2022/04/23 06:52:37;;;;;;;11.50;9.10;;;16.30;99.90;;;;;;5035329;28;20486;-76
2022/04/23 06:55:04;;;;;;;11.18;9.23;;;16.10;99.90;;;;;;5043653;28;20477;-78
2022/04/23 06:57:30;;;;;;;10.68;9.27;;;15.90;99.90;;;;;;5020856;28;20051;-73
2022/04/23 07:00:00;;;;;;;11.15;9.82;;;15.10;99.90;;;;;;5033295;28;20437;-74
2022/04/23 07:02:26;;;;;;;13.55;9.23;;;14.50;99.90;;;;;;5036827;28;20041;-73
2022/04/23 07:04:51;;;;;;;11.27;9.48;;;13.90;99.90;;;;;;5024117;28;20041;-75
2022/04/23 07:07:17;;;;;;;13.43;10.40;;;13.40;99.90;;;;;;5034585;28;20034;-76
2022/04/23 07:09:42;;;;;;;13.43;10.43;;;13.30;99.90;;;;;;5018569;28;20053;-75
2022/04/23 07:12:08;;;;;;;12.65;10.25;;;13.10;99.90;;;;;;5017331;28;20049;-75
2022/04/23 07:14:34;;;;;;;11.38;9.60;;;12.90;99.90;;;;;;5035331;28;20049;-75
2022/04/23 07:17:00;;;;;;;14.15;10.30;;;13.00;99.90;;;;;;5017446;28;20451;-76
2022/04/23 07:19:25;;;;;;;13.07;10.23;;;12.90;99.90;;;;;;5037185;28;20037;-76
2022/04/23 07:21:51;;;;;;;12.52;9.38;;;12.90;99.90;;;;;;5021878;28;20045;-76
2022/04/23 07:24:17;;;;;;;13.85;9.75;;;12.90;99.90;;;;;;5031276;28;20174;-75
2022/04/23 07:26:43;;;;;;;12.32;10.15;;;13.10;99.90;;;;;;5044820;28;20045;-76
2022/04/23 07:29:10;;;;;;;11.68;9.88;;;13.10;99.90;;;;;;5024495;28;20471;-74
2022/04/23 07:31:37;;;;;;;11.40;9.73;;;13.00;99.90;;;;;;5018860;28;20113;-74
2022/04/23 07:39:33;;;;;;;16.70;10.13;;;13.20;99.90;;;;;;5018284;28;20100;-74
2022/04/23 07:41:59;;;;;;;11.57;9.85;;;13.40;99.90;;;;;;5035241;28;20037;-75
2022/04/23 07:44:26;;;;;;;10.98;9.77;;;13.80;99.90;;;;;;5017729;28;20060;-75
2022/04/23 07:46:51;;;;;;;12.15;9.52;;;14.50;99.90;;;;;;5036632;28;20458;-75
2022/04/23 07:49:17;;;;;;;12.77;8.98;;;15.50;99.90;;;;;;5055842;28;20052;-74
2022/04/23 07:51:43;;;;;;;10.90;9.45;;;15.70;99.90;;;;;;5037213;28;20045;-74
2022/04/23 07:54:09;;;;;;;13.40;9.35;;;15.00;99.90;;;;;;5018480;28;20041;-74
2022/04/23 07:56:35;;;;;;;11.63;8.55;;;14.80;99.90;;;;;;5035725;28;20343;-75
2022/04/23 07:59:02;;;;;;;11.70;10.25;;;14.60;99.90;;;;;;5006977;28;20049;-75
2022/04/23 08:01:28;;;;;;;13.65;10.70;;;14.30;99.90;;;;;;5055237;28;20129;-75
2022/04/23 08:03:53;;;;;;;10.18;9.00;;;14.10;99.90;;;;;;5038239;28;20072;-74
2022/04/23 08:06:19;;;;;;;13.35;9.98;;;14.10;99.90;;;;;;5023518;28;20037;-72
2022/04/23 08:08:45;;;;;;;10.77;9.32;;;14.50;99.90;;;;;;5055801;28;20086;-72
2022/04/23 08:11:11;;;;;;;11.30;8.85;;;15.70;99.90;;;;;;5054680;28;20132;-71
2022/04/23 08:13:36;;;;;;;13.18;9.27;;;16.60;99.90;;;;;;5055505;28;20053;-73
2022/04/23 08:16:03;;;;;;;13.80;9.45;;;17.10;98.40;;;;;;5022159;28;20452;-74
2022/04/23 08:18:29;;;;;;;10.35;8.27;;;17.20;95.90;;;;;;5048876;28;20040;-76
2022/04/23 08:20:55;;;;;;;12.38;9.40;;;17.10;95.70;;;;;;5018601;28;20346;-76
2022/04/23 08:23:21;;;;;;;10.93;9.13;;;17.10;94.90;;;;;;5037345;28;20195;-75
2022/04/23 08:25:47;;;;;;;12.52;8.35;;;17.20;94.50;;;;;;5045613;28;20096;-75
2022/04/23 08:30:59;;;;;;;11.70;8.02;;;16.90;92.40;;;;;;5016163;28;20046;-73
2022/04/23 08:33:57;;;;;;;12.25;8.95;;;17.20;92.90;;;;;;5020969;28;20048;-76
2022/04/23 08:36:10;;;;;;;14.63;8.52;;;17.40;92.20;;;;;;5040880;28;20445;-74
2022/04/23 08:38:37;;;;;;;17.75;8.10;;;18.00;91.30;;;;;;5037265;28;20044;-76
2022/04/23 08:41:04;;;;;;;13.95;8.10;;;18.30;90.70;;;;;;5020073;28;20102;-74
2022/04/23 08:43:31;;;;;;;10.23;8.02;;;18.20;89.00;;;;;;5037231;28;20331;-74
2022/04/23 08:45:57;;;;;;;12.98;8.07;;;18.20;89.30;;;;;;5025624;28;20041;-75
2022/04/23 08:48:26;;;;;;;10.95;8.02;;;18.20;89.00;;;;;;5023872;28;20206;-75
2022/04/23 08:50:59;;;;;;;14.80;8.68;;;18.00;88.40;;;;;;5034874;28;20054;-77
2022/04/23 08:53:27;;;;;;;11.10;8.18;;;18.00;87.80;;;;;;5027161;28;20048;-76
2022/04/23 08:55:53;;;;;;;12.18;8.57;;;18.00;88.10;;;;;;5054174;28;20110;-74
2022/04/23 08:58:19;;;;;;;16.10;8.18;;;17.80;86.60;;;;;;5054207;28;20041;-73
2022/04/23 09:00:45;;;;;;;12.45;7.63;;;17.60;87.50;;;;;;5023642;28;20044;-75
2022/04/23 09:03:18;;;;;;;12.68;8.13;;;17.30;89.40;;;;;;5037175;28;20056;-75
2022/04/23 09:05:50;;;;;;;18.05;8.13;;;17.10;89.90;;;;;;5030391;28;20073;-74
2022/04/23 09:08:15;;;;;;;18.90;8.88;;;16.40;89.20;;;;;;5034487;28;20056;-76
2022/04/23 09:10:46;;;;;;;13.35;8.00;;;16.40;89.80;;;;;;5022573;28;20132;-76
2022/04/23 09:13:27;;;;;;;13.38;7.75;;;16.40;90.10;;;;;;5031804;28;20053;-75
2022/04/23 09:24:48;;;;;;;9.25;7.95;;;16.10;90.20;;;;;;4997222;28;20054;-75
2022/04/23 09:27:14;;;;;;;;;;;16.20;91.20;;;;;;5034394;28;20045;-75
2022/04/23 09:29:40;;;;;;;12.32;8.98;;;16.20;91.10;;;;;;5034405;28;20349;-74
2022/04/23 09:32:14;;;;;;;12.85;8.45;;;16.80;90.90;;;;;;5034149;28;20072;-74
2022/04/23 09:34:40;;;;;;;13.95;8.73;;;16.70;90.00;;;;;;5038350;28;20048;-76
2022/04/23 09:37:08;;;;;;;17.80;9.07;;;16.70;89.80;;;;;;5021774;28;20098;-73
2022/04/23 09:39:35;;;;;;;15.65;9.18;;;17.20;90.90;;;;;;5036500;28;20060;-74
2022/04/23 09:42:14;;;;;;;12.05;8.77;;;17.30;89.60;;;;;;5050586;28;20365;-74
2022/04/23 09:44:41;;;;;;;11.52;9.00;;;17.20;89.40;;;;;;5052490;28;20037;-74
2022/04/23 09:47:07;;;;;;;11.52;9.57;;;17.00;90.50;;;;;;5051881;28;20040;-74
2022/04/23 09:49:32;;;;;;;16.13;10.00;;;16.50;90.10;;;;;;5034444;28;20489;-74
2022/04/23 09:52:08;;;;;;;11.57;9.80;;;16.40;91.10;;;;;;5017068;28;20062;-74
2022/04/23 09:54:35;;;;;;;11.40;9.05;;;16.20;91.10;;;;;;5036728;28;20141;-74
2022/04/23 09:57:02;;;;;;;15.57;8.90;;;16.30;91.70;;;;;;5054016;28;20152;-73
2022/04/23 09:59:28;;;;;;;10.27;8.90;;;16.40;91.40;;;;;;5034118;28;20114;-74
2022/04/23 10:01:58;;;;;;;13.25;9.30;;;16.30;91.60;;;;;;5047647;28;20453;-74
2022/04/23 10:04:27;;;;;;;12.70;9.20;;;16.30;91.10;;;;;;5053468;28;20532;-73
2022/04/23 10:06:54;;;;;;;13.65;9.48;;;16.40;91.30;;;;;;5034715;28;20045;-72
2022/04/23 10:09:24;;;;;;;14.48;9.27;;;16.50;92.10;;;;;;5022046;28;20045;-72
2022/04/23 10:11:55;;;;;;;14.70;10.05;;;16.60;91.20;;;;;;5020113;28;20060;-73
2022/04/23 10:14:24;;;;;;;13.52;9.70;;;16.40;91.10;;;;;;5037798;28;20442;-76
2022/04/23 10:16:50;;;;;;;13.43;9.60;;;16.50;91.90;;;;;;5020116;28;20095;-76
2022/04/23 10:19:16;;;;;;;9.98;8.48;;;16.60;92.00;;;;;;5018690;28;20048;-74
2022/04/23 10:21:58;;;;;;;11.75;8.13;;;16.70;91.70;;;;;;5056930;28;20048;-74
2022/04/23 10:25:24;;;;;;;12.63;9.48;;;16.80;91.20;;;;;;5056945;28;20045;-73
2022/04/23 10:27:51;;;;;;;10.48;9.25;;;17.10;90.70;;;;;;4960746;28;20110;-74
2022/04/23 10:30:17;;;;;;;11.40;9.13;;;17.10;90.40;;;;;;5030215;28;20046;-73
2022/04/23 10:32:43;;;;;;;11.43;8.88;;;16.80;90.20;;;;;;5037352;28;20056;-73
2022/04/23 10:35:17;;;;;;;13.73;8.25;;;16.90;90.40;;;;;;5047384;28;20036;-74
2022/04/23 10:37:43;;;;;;;17.13;9.77;;;16.90;90.20;;;;;;5040107;28;20040;-76
2022/04/23 10:40:14;;;;;;;13.30;9.40;;;17.00;89.40;;;;;;5039429;28;20059;-75
2022/04/23 10:42:59;;;;;;;10.88;9.73;;;17.00;89.10;;;;;;5056932;28;20052;-74
2022/04/23 10:45:32;;;;;;;12.18;9.57;;;17.00;89.90;;;;;;5050023;28;20045;-76
2022/04/23 10:48:19;;;;;;;13.48;9.48;;;17.00;90.10;;;;;;5036290;28;20049;-75
2022/04/23 10:51:11;;;;;;;11.60;9.25;;;17.10;89.30;;;;;;5022129;28;20046;-73
2022/04/23 10:53:41;;;;;;;18.55;9.45;;;17.10;89.60;;;;;;5025473;28;20362;-74
2022/04/23 10:56:12;;;;;;;13.20;9.35;;;17.30;89.30;;;;;;5024143;28;20116;-75
2022/04/23 10:58:38;;;;;;;11.18;9.88;;;17.30;87.10;;;;;;5036423;28;20052;-76
2022/04/23 11:01:27;;;;;;;13.32;9.75;;;17.30;87.70;;;;;;5036252;28;20041;-75
2022/04/23 11:03:55;;;;;;;12.52;10.27;;;17.30;86.40;;;;;;5034246;28;20044;-74
2022/04/23 11:12:36;;;;;;;13.95;7.95;;;17.20;84.60;;;;;;4981459;28;20077;-73
2022/04/23 11:15:13;;;;;;;10.00;7.88;;;17.60;87.30;;;;;;5010750;28;20532;-73
2022/04/23 11:17:38;;;;;;;11.50;8.38;;;17.60;83.10;;;;;;5026314;28;20053;-77
2022/04/23 11:20:05;;;;;;;11.23;8.75;;;17.70;83.00;;;;;;5019094;28;20406;-76
2022/04/23 11:22:31;;;;;;;16.20;8.75;;;17.40;81.50;;;;;;5036789;28;20048;-77
2022/04/23 11:24:57;;;;;;;13.75;8.18;;;17.40;83.30;;;;;;5002780;28;20037;-74
2022/04/23 11:27:27;;;;;;;9.48;7.30;;;17.60;85.30;;;;;;5018670;28;20081;-75
2022/04/23 11:29:53;;;;;;;10.00;7.93;;;17.90;81.40;;;;;;5018587;28;20056;-76
2022/04/23 11:32:30;;;;;;;8.38;7.05;;;18.00;78.30;;;;;;5002503;28;20054;-75
2022/04/23 11:35:00;;;;;;;13.98;7.28;;;17.90;79.00;;;;;;5041774;28;20037;-74
2022/04/23 11:37:32;;;;;;;13.45;7.10;;;17.90;79.40;;;;;;5037858;28;20052;-72
2022/04/23 11:40:12;;;;;;;10.82;7.10;;;17.90;79.20;;;;;;5055591;28;20029;-71
2022/04/23 11:42:45;;;;;;;9.32;7.03;;;18.00;80.50;;;;;;5055492;28;20051;-72
2022/04/23 11:45:16;;;;;;;10.60;7.75;;;18.10;78.70;;;;;;5038730;28;20125;-71
2022/04/23 11:47:42;;;;;;;12.63;6.95;;;18.10;77.30;;;;;;5055977;28;20077;-72
2022/04/23 11:50:07;;;;;;;15.55;8.57;;;18.10;78.10;;;;;;5055894;28;20091;-72
2022/04/23 11:52:33;;;;;;;10.85;6.72;;;18.10;76.80;;;;;;5055903;28;20044;-76
2022/04/23 11:55:01;;;;;;;14.25;7.15;;;18.10;78.30;;;;;;5021299;28;20135;-74
2022/04/23 11:57:26;;;;;;;12.13;7.95;;;18.50;76.00;;;;;;5056228;28;20080;-74
2022/04/23 12:00:03;;;;;;;9.52;7.65;;;17.80;75.40;;;;;;5055620;28;20544;-75
2022/04/23 12:02:30;;;;;;;12.73;6.80;;;17.90;74.60;;;;;;5055428;28;20360;-76
2022/04/23 12:04:58;;;;;;;8.68;7.13;;;17.80;75.90;;;;;;5047573;28;20041;-74
2022/04/23 12:07:25;;;;;;;14.52;6.53;;;18.00;75.30;;;;;;5033335;28;20128;-74
2022/04/23 12:09:51;;;;;;;12.77;6.78;;;18.00;74.90;;;;;;5021306;28;20057;-74
2022/04/23 12:12:25;;;;;;;12.52;5.80;;;18.00;72.90;;;;;;5034762;28;20119;-73
2022/04/23 12:14:56;;;;;;;13.70;6.43;;;18.10;72.90;;;;;;5035005;28;20053;-75
2022/04/23 12:17:47;;;;;;;13.50;7.03;;;18.20;73.50;;;;;;5017729;28;20131;-75
2022/04/23 12:20:15;;;;;;;18.05;7.38;;;18.30;72.10;;;;;;5001258;28;20049;-75
2022/04/23 12:22:53;;;;;;;9.32;6.20;;;18.30;73.10;;;;;;5018402;28;20068;-77
2022/04/23 12:25:18;;;;;;;13.65;6.60;;;18.40;73.90;;;;;;5034370;28;20041;-73
2022/04/23 12:42:06;;;;;;;7.38;5.85;;;18.30;70.80;;;;;;5009700;28;20114;-74
2022/04/23 12:44:35;;;;;;;9.35;6.30;;;18.40;70.20;;;;;;5034499;28;20382;-73
2022/04/23 12:47:03;;;;;;;10.40;5.85;;;18.40;71.90;;;;;;5034200;28;20050;-74
2022/04/23 12:50:00;;;;;;;8.05;6.70;;;18.60;72.00;;;;;;5034159;28;20103;-73
2022/04/23 12:52:34;;;;;;;7.75;6.40;;;18.70;70.80;;;;;;5016036;28;20045;-74
2022/04/23 12:55:22;;;;;;;8.00;6.32;;;18.60;69.60;;;;;;5015812;28;20045;-75
2022/04/23 12:57:53;;;;;;;8.75;6.53;;;18.50;69.30;;;;;;5016441;28;20080;-74
2022/04/23 13:00:21;;;;;;;10.02;6.57;;;18.40;69.70;;;;;;5016726;28;20060;-74
2022/04/23 13:02:50;;;;;;;7.05;6.13;;;18.40;68.80;;;;;;5030854;28;20053;-74
2022/04/23 13:05:16;;;;;;;7.68;6.07;;;18.50;69.00;;;;;;5043233;28;20072;-74
2022/04/23 13:10:27;;;;;;;10.32;5.38;;;18.50;67.90;;;;;;5033842;28;20045;-77
2022/04/23 13:12:53;;;;;;;11.18;5.40;;;18.50;70.10;;;;;;5034308;28;20101;-76
2022/04/23 13:15:18;;;;;;;8.57;5.65;;;18.60;66.90;;;;;;5000234;28;20057;-74
2022/04/23 13:17:46;;;;;;;8.63;5.20;;;18.70;67.00;;;;;;5033452;28;20535;-75
2022/04/23 13:20:13;;;;;;;7.43;5.68;;;18.70;67.00;;;;;;5016569;28;20049;-75